ROLR1 YMES-YMHB
Flight info
| Callsign | ROLR1 |
|---|---|
| Flight time | 1h 2m |
| Altitude | 12500 |
| Route | ESL5 DER04 W407 TASUM |
| Aircraft | PC21/L-L/S |
Departure
| Time | 2026-04-27 23:04 |
|---|---|
| Airport | RAAF Base East Sale (YMES) |
Arrival
| Time | 2026-04-28 00:06 |
|---|---|
| Airport | Hobart International Airport (YMHB) |
| Time | Latitude | Longitude | Altitude | Speed | Heading |
|---|---|---|---|---|---|
| 2026-04-27 22:57 | -38.09902 | 147.13602 | 26 ft | 0 kts | 188° |
| 2026-04-27 22:59 | -38.09903 | 147.13601 | 26 ft | 4 kts | 188° |
| 2026-04-27 22:59 | -38.09924 | 147.13616 | 27 ft | 2 kts | 100° |
| 2026-04-27 22:59 | -38.09936 | 147.13718 | 26 ft | 15 kts | 98° |
| 2026-04-27 23:00 | -38.09940 | 147.13885 | 27 ft | 11 kts | 24° |
| 2026-04-27 23:00 | -38.09915 | 147.13949 | 28 ft | 13 kts | 96° |
| 2026-04-27 23:00 | -38.09930 | 147.14070 | 26 ft | 11 kts | 84° |
| 2026-04-27 23:01 | -38.09869 | 147.14135 | 26 ft | 10 kts | 49° |
| 2026-04-27 23:01 | -38.09871 | 147.14234 | 25 ft | 15 kts | 100° |
| 2026-04-27 23:01 | -38.09905 | 147.14352 | 23 ft | 14 kts | 133° |
| 2026-04-27 23:01 | -38.09987 | 147.14408 | 22 ft | 16 kts | 191° |
| 2026-04-27 23:02 | -38.10108 | 147.14271 | 25 ft | 32 kts | 233° |
| 2026-04-27 23:02 | -38.10254 | 147.14014 | 24 ft | 34 kts | 234° |
| 2026-04-27 23:02 | -38.10380 | 147.13799 | 21 ft | 13 kts | 233° |
| 2026-04-27 23:02 | -38.10447 | 147.13718 | 21 ft | 13 kts | 191° |
| 2026-04-27 23:03 | -38.10535 | 147.13794 | 18 ft | 22 kts | 133° |
| 2026-04-27 23:03 | -38.10562 | 147.13924 | 17 ft | 7 kts | 71° |
| 2026-04-27 23:03 | -38.10550 | 147.13947 | 17 ft | 19 kts | 53° |
| 2026-04-27 23:03 | -38.10274 | 147.14422 | 24 ft | 110 kts | 54° |
| 2026-04-27 23:04 | -38.09702 | 147.15438 | 184 ft | 149 kts | 64° |
| 2026-04-27 23:04 | -38.09750 | 147.16827 | 892 ft | 185 kts | 120° |
| 2026-04-27 23:04 | -38.10837 | 147.17893 | 1462 ft | 220 kts | 167° |
| 2026-04-27 23:04 | -38.12431 | 147.17716 | 2055 ft | 244 kts | 201° |
| 2026-04-27 23:05 | -38.14125 | 147.17080 | 2608 ft | 264 kts | 193° |
| 2026-04-27 23:05 | -38.15995 | 147.16674 | 3132 ft | 280 kts | 188° |
| 2026-04-27 23:05 | -38.17982 | 147.16430 | 3669 ft | 293 kts | 185° |
| 2026-04-27 23:05 | -38.20033 | 147.16289 | 4196 ft | 296 kts | 184° |
| 2026-04-27 23:06 | -38.22110 | 147.16191 | 4711 ft | 300 kts | 184° |
| 2026-04-27 23:06 | -38.24204 | 147.16113 | 5217 ft | 303 kts | 184° |
| 2026-04-27 23:06 | -38.26290 | 147.16085 | 5715 ft | 306 kts | 180° |
| 2026-04-27 23:06 | -38.28422 | 147.16285 | 6223 ft | 308 kts | 179° |
| 2026-04-27 23:07 | -38.30568 | 147.16423 | 6733 ft | 309 kts | 180° |
| 2026-04-27 23:07 | -38.32724 | 147.16575 | 7215 ft | 312 kts | 179° |
| 2026-04-27 23:07 | -38.34899 | 147.16736 | 7709 ft | 314 kts | 179° |
| 2026-04-27 23:07 | -38.37087 | 147.16888 | 8210 ft | 316 kts | 179° |
| 2026-04-27 23:08 | -38.39295 | 147.17048 | 8734 ft | 318 kts | 179° |
| 2026-04-27 23:08 | -38.41509 | 147.17206 | 9242 ft | 319 kts | 179° |
| 2026-04-27 23:08 | -38.43732 | 147.17365 | 9753 ft | 320 kts | 179° |
| 2026-04-27 23:08 | -38.45920 | 147.17522 | 10265 ft | 319 kts | 178° |
| 2026-04-27 23:09 | -38.48135 | 147.17682 | 10734 ft | 319 kts | 179° |
| 2026-04-27 23:09 | -38.50354 | 147.17841 | 11216 ft | 319 kts | 179° |
| 2026-04-27 23:09 | -38.52571 | 147.18000 | 11705 ft | 319 kts | 179° |
| 2026-04-27 23:09 | -38.54782 | 147.18159 | 12196 ft | 318 kts | 180° |
| 2026-04-27 23:10 | -38.56990 | 147.18311 | 12701 ft | 318 kts | 179° |
| 2026-04-27 23:10 | -38.59213 | 147.18483 | 13069 ft | 323 kts | 179° |
| 2026-04-27 23:10 | -38.61487 | 147.18639 | 13228 ft | 331 kts | 180° |
| 2026-04-27 23:10 | -38.63772 | 147.18805 | 13301 ft | 336 kts | 179° |
| 2026-04-27 23:11 | -38.66069 | 147.18975 | 13326 ft | 326 kts | 180° |
| 2026-04-27 23:11 | -38.68333 | 147.19133 | 13338 ft | 327 kts | 180° |
| 2026-04-27 23:11 | -38.70618 | 147.19300 | 13342 ft | 329 kts | 179° |
| 2026-04-27 23:11 | -38.72908 | 147.19466 | 13346 ft | 330 kts | 180° |
| 2026-04-27 23:12 | -38.75209 | 147.19631 | 13347 ft | 331 kts | 180° |
| 2026-04-27 23:12 | -38.77512 | 147.19798 | 13346 ft | 332 kts | 180° |
| 2026-04-27 23:12 | -38.79824 | 147.19966 | 13349 ft | 333 kts | 180° |
| 2026-04-27 23:12 | -38.82136 | 147.20134 | 13350 ft | 333 kts | 180° |
| 2026-04-27 23:13 | -38.84424 | 147.20300 | 13350 ft | 334 kts | 180° |
| 2026-04-27 23:13 | -38.86740 | 147.20468 | 13344 ft | 334 kts | 179° |
| 2026-04-27 23:13 | -38.89057 | 147.20636 | 13341 ft | 334 kts | 179° |
| 2026-04-27 23:13 | -38.91379 | 147.20804 | 13343 ft | 334 kts | 179° |
| 2026-04-27 23:14 | -38.93700 | 147.20975 | 13343 ft | 334 kts | 179° |
| 2026-04-27 23:14 | -38.96015 | 147.21142 | 13343 ft | 334 kts | 180° |
| 2026-04-27 23:14 | -38.98336 | 147.21308 | 13342 ft | 334 kts | 179° |
| 2026-04-27 23:14 | -39.00651 | 147.21480 | 13344 ft | 334 kts | 179° |
| 2026-04-27 23:15 | -39.02940 | 147.21646 | 13344 ft | 334 kts | 180° |
| 2026-04-27 23:15 | -39.05286 | 147.21817 | 13343 ft | 334 kts | 179° |
| 2026-04-27 23:15 | -39.07575 | 147.21984 | 13346 ft | 334 kts | 180° |
| 2026-04-27 23:15 | -39.09889 | 147.22153 | 13345 ft | 333 kts | 180° |
| 2026-04-27 23:16 | -39.12207 | 147.22322 | 13341 ft | 333 kts | 180° |
| 2026-04-27 23:16 | -39.14520 | 147.22492 | 13345 ft | 333 kts | 179° |
| 2026-04-27 23:16 | -39.16836 | 147.22661 | 13341 ft | 333 kts | 180° |
| 2026-04-27 23:16 | -39.19146 | 147.22830 | 13344 ft | 333 kts | 180° |
| 2026-04-27 23:17 | -39.21462 | 147.23000 | 13341 ft | 333 kts | 180° |
| 2026-04-27 23:17 | -39.23772 | 147.23169 | 13342 ft | 333 kts | 179° |
| 2026-04-27 23:17 | -39.26056 | 147.23337 | 13345 ft | 333 kts | 179° |
| 2026-04-27 23:17 | -39.28366 | 147.23506 | 13343 ft | 333 kts | 180° |
| 2026-04-27 23:18 | -39.30680 | 147.23677 | 13340 ft | 333 kts | 180° |
| 2026-04-27 23:18 | -39.32989 | 147.23846 | 13343 ft | 333 kts | 180° |
| 2026-04-27 23:18 | -39.35302 | 147.24017 | 13342 ft | 333 kts | 180° |
| 2026-04-27 23:18 | -39.37610 | 147.24186 | 13343 ft | 333 kts | 180° |
| 2026-04-27 23:19 | -39.39922 | 147.24356 | 13341 ft | 332 kts | 180° |
| 2026-04-27 23:19 | -39.42230 | 147.24527 | 13340 ft | 333 kts | 180° |
| 2026-04-27 23:19 | -39.44543 | 147.24697 | 13345 ft | 333 kts | 180° |
| 2026-04-27 23:19 | -39.46851 | 147.24867 | 13343 ft | 333 kts | 180° |
| 2026-04-27 23:20 | -39.49134 | 147.25036 | 13344 ft | 333 kts | 180° |
| 2026-04-27 23:20 | -39.51442 | 147.25207 | 13344 ft | 333 kts | 179° |
| 2026-04-27 23:20 | -39.53753 | 147.25377 | 13343 ft | 332 kts | 179° |
| 2026-04-27 23:20 | -39.56063 | 147.25549 | 13343 ft | 332 kts | 180° |
| 2026-04-27 23:21 | -39.58367 | 147.25719 | 13341 ft | 332 kts | 179° |
| 2026-04-27 23:21 | -39.60672 | 147.25890 | 13343 ft | 332 kts | 180° |
| 2026-04-27 23:21 | -39.62983 | 147.26061 | 13345 ft | 332 kts | 179° |
| 2026-04-27 23:21 | -39.65289 | 147.26232 | 13344 ft | 332 kts | 180° |
| 2026-04-27 23:22 | -39.67571 | 147.26401 | 13339 ft | 333 kts | 179° |
| 2026-04-27 23:22 | -39.69878 | 147.26573 | 13338 ft | 333 kts | 179° |
| 2026-04-27 23:22 | -39.72191 | 147.26746 | 13338 ft | 332 kts | 179° |
| 2026-04-27 23:22 | -39.74497 | 147.26917 | 13341 ft | 332 kts | 179° |
| 2026-04-27 23:23 | -39.76809 | 147.27089 | 13340 ft | 332 kts | 179° |
| 2026-04-27 23:23 | -39.79114 | 147.27261 | 13341 ft | 332 kts | 179° |
| 2026-04-27 23:23 | -39.81425 | 147.27433 | 13341 ft | 332 kts | 179° |
| 2026-04-27 23:23 | -39.83732 | 147.27605 | 13344 ft | 332 kts | 179° |
| 2026-04-27 23:24 | -39.86043 | 147.27778 | 13341 ft | 333 kts | 179° |
| 2026-04-27 23:24 | -39.88352 | 147.27950 | 13339 ft | 333 kts | 179° |
| 2026-04-27 23:24 | -39.90634 | 147.28120 | 13338 ft | 333 kts | 179° |
| 2026-04-27 23:24 | -39.92942 | 147.28293 | 13339 ft | 333 kts | 179° |
| 2026-04-27 23:25 | -39.95257 | 147.28466 | 13337 ft | 333 kts | 179° |
| 2026-04-27 23:25 | -39.97566 | 147.28639 | 13334 ft | 333 kts | 179° |
| 2026-04-27 23:25 | -39.99881 | 147.28812 | 13339 ft | 333 kts | 179° |
| 2026-04-27 23:25 | -40.02197 | 147.28986 | 13339 ft | 333 kts | 179° |
| 2026-04-27 23:26 | -40.04507 | 147.29160 | 13336 ft | 333 kts | 179° |
| 2026-04-27 23:26 | -40.06819 | 147.29333 | 13338 ft | 333 kts | 179° |
| 2026-04-27 23:26 | -40.09106 | 147.29505 | 13338 ft | 333 kts | 179° |
| 2026-04-27 23:26 | -40.11419 | 147.29679 | 13333 ft | 333 kts | 179° |
| 2026-04-27 23:27 | -40.13738 | 147.29854 | 13335 ft | 333 kts | 179° |
| 2026-04-27 23:27 | -40.16051 | 147.30028 | 13333 ft | 333 kts | 179° |
| 2026-04-27 23:27 | -40.18370 | 147.30203 | 13334 ft | 333 kts | 179° |
| 2026-04-27 23:27 | -40.20684 | 147.30377 | 13335 ft | 333 kts | 179° |
| 2026-04-27 23:28 | -40.23004 | 147.30552 | 13333 ft | 334 kts | 179° |
| 2026-04-27 23:28 | -40.25320 | 147.30727 | 13334 ft | 334 kts | 179° |
| 2026-04-27 23:28 | -40.27642 | 147.30903 | 13334 ft | 334 kts | 179° |
| 2026-04-27 23:28 | -40.29961 | 147.31078 | 13332 ft | 334 kts | 179° |
| 2026-04-27 23:29 | -40.32254 | 147.31251 | 13332 ft | 334 kts | 179° |
| 2026-04-27 23:29 | -40.34573 | 147.31427 | 13330 ft | 334 kts | 179° |
| 2026-04-27 23:29 | -40.36896 | 147.31603 | 13327 ft | 334 kts | 179° |
| 2026-04-27 23:29 | -40.39220 | 147.31779 | 13329 ft | 334 kts | 179° |
| 2026-04-27 23:30 | -40.41539 | 147.31955 | 13328 ft | 334 kts | 179° |
| 2026-04-27 23:30 | -40.43864 | 147.32132 | 13329 ft | 334 kts | 179° |
| 2026-04-27 23:30 | -40.46185 | 147.32308 | 13331 ft | 335 kts | 179° |
| 2026-04-27 23:30 | -40.48508 | 147.32485 | 13332 ft | 335 kts | 180° |
| 2026-04-27 23:31 | -40.50835 | 147.32662 | 13329 ft | 335 kts | 180° |
| 2026-04-27 23:31 | -40.53159 | 147.32838 | 13328 ft | 335 kts | 180° |
| 2026-04-27 23:31 | -40.55457 | 147.33014 | 13328 ft | 335 kts | 180° |
| 2026-04-27 23:31 | -40.57781 | 147.33191 | 13332 ft | 335 kts | 180° |
| 2026-04-27 23:32 | -40.60111 | 147.33368 | 13322 ft | 335 kts | 180° |
| 2026-04-27 23:32 | -40.62437 | 147.33546 | 13327 ft | 335 kts | 180° |
| 2026-04-27 23:32 | -40.64771 | 147.33724 | 13214 ft | 338 kts | 180° |
| 2026-04-27 23:32 | -40.67132 | 147.33906 | 12825 ft | 340 kts | 179° |
| 2026-04-27 23:33 | -40.69487 | 147.34087 | 12691 ft | 337 kts | 180° |
| 2026-04-27 23:33 | -40.71791 | 147.34260 | 12632 ft | 336 kts | 180° |
| 2026-04-27 23:33 | -40.74125 | 147.34441 | 12604 ft | 336 kts | 180° |
| 2026-04-27 23:33 | -40.76453 | 147.34619 | 12592 ft | 335 kts | 180° |
| 2026-04-27 23:34 | -40.78783 | 147.34798 | 12583 ft | 335 kts | 180° |
| 2026-04-27 23:34 | -40.81111 | 147.34976 | 12580 ft | 335 kts | 180° |
| 2026-04-27 23:34 | -40.83433 | 147.35156 | 12583 ft | 335 kts | 180° |
| 2026-04-27 23:34 | -40.85756 | 147.35333 | 12591 ft | 335 kts | 180° |
| 2026-04-27 23:35 | -40.88081 | 147.35513 | 12577 ft | 334 kts | 180° |
| 2026-04-27 23:35 | -40.90408 | 147.35691 | 12586 ft | 335 kts | 180° |
| 2026-04-27 23:35 | -40.92700 | 147.35869 | 12581 ft | 335 kts | 180° |
| 2026-04-27 23:35 | -40.95030 | 147.36048 | 12572 ft | 335 kts | 180° |
| 2026-04-27 23:36 | -40.97354 | 147.36227 | 12576 ft | 335 kts | 180° |
| 2026-04-27 23:36 | -40.99682 | 147.36407 | 12577 ft | 335 kts | 180° |
| 2026-04-27 23:36 | -41.02006 | 147.36587 | 12577 ft | 335 kts | 180° |
| 2026-04-27 23:36 | -41.04335 | 147.36767 | 12582 ft | 335 kts | 180° |
| 2026-04-27 23:37 | -41.06658 | 147.36947 | 12583 ft | 335 kts | 180° |
| 2026-04-27 23:37 | -41.08987 | 147.37127 | 12582 ft | 335 kts | 180° |
| 2026-04-27 23:37 | -41.11312 | 147.37307 | 12580 ft | 335 kts | 180° |
| 2026-04-27 23:37 | -41.13643 | 147.37487 | 12580 ft | 335 kts | 180° |
| 2026-04-27 23:38 | -41.15937 | 147.37666 | 12583 ft | 335 kts | 180° |
| 2026-04-27 23:38 | -41.18269 | 147.37847 | 12582 ft | 336 kts | 180° |
| 2026-04-27 23:38 | -41.20597 | 147.38027 | 12582 ft | 336 kts | 180° |
| 2026-04-27 23:38 | -41.22930 | 147.38209 | 12579 ft | 335 kts | 180° |
| 2026-04-27 23:39 | -41.25257 | 147.38390 | 12585 ft | 335 kts | 180° |
| 2026-04-27 23:39 | -41.27591 | 147.38572 | 12575 ft | 336 kts | 180° |
| 2026-04-27 23:39 | -41.29918 | 147.38753 | 12575 ft | 335 kts | 180° |
| 2026-04-27 23:39 | -41.32250 | 147.38935 | 12569 ft | 335 kts | 180° |
| 2026-04-27 23:40 | -41.34576 | 147.39117 | 12574 ft | 335 kts | 180° |
| 2026-04-27 23:40 | -41.36880 | 147.39296 | 12566 ft | 336 kts | 180° |
| 2026-04-27 23:40 | -41.39210 | 147.39479 | 12564 ft | 336 kts | 180° |
| 2026-04-27 23:40 | -41.41544 | 147.39662 | 12558 ft | 336 kts | 180° |
| 2026-04-27 23:41 | -41.43873 | 147.39843 | 12551 ft | 336 kts | 180° |
| 2026-04-27 23:41 | -41.46211 | 147.40027 | 12553 ft | 336 kts | 180° |
| 2026-04-27 23:41 | -41.48544 | 147.40209 | 12548 ft | 336 kts | 180° |
| 2026-04-27 23:41 | -41.50882 | 147.40393 | 12566 ft | 336 kts | 180° |
| 2026-04-27 23:42 | -41.53216 | 147.40576 | 12562 ft | 337 kts | 180° |
| 2026-04-27 23:42 | -41.55556 | 147.40760 | 12553 ft | 337 kts | 180° |
| 2026-04-27 23:42 | -41.57891 | 147.40943 | 12549 ft | 336 kts | 180° |
| 2026-04-27 23:42 | -41.60199 | 147.41125 | 12542 ft | 336 kts | 180° |
| 2026-04-27 23:43 | -41.62529 | 147.41308 | 12551 ft | 336 kts | 180° |
| 2026-04-27 23:43 | -41.64868 | 147.41492 | 12555 ft | 337 kts | 180° |
| 2026-04-27 23:43 | -41.67205 | 147.41677 | 12552 ft | 337 kts | 180° |
| 2026-04-27 23:43 | -41.69548 | 147.41861 | 12559 ft | 337 kts | 180° |
| 2026-04-27 23:44 | -41.71885 | 147.42046 | 12557 ft | 337 kts | 180° |
| 2026-04-27 23:44 | -41.74230 | 147.42232 | 12554 ft | 338 kts | 180° |
| 2026-04-27 23:44 | -41.76573 | 147.42417 | 12556 ft | 338 kts | 180° |
| 2026-04-27 23:44 | -41.78891 | 147.42600 | 12558 ft | 338 kts | 180° |
| 2026-04-27 23:45 | -41.81233 | 147.42786 | 12554 ft | 338 kts | 180° |
| 2026-04-27 23:45 | -41.83581 | 147.42972 | 12554 ft | 338 kts | 180° |
| 2026-04-27 23:45 | -41.85926 | 147.43158 | 12549 ft | 338 kts | 180° |
| 2026-04-27 23:45 | -41.88277 | 147.43344 | 12548 ft | 338 kts | 180° |
| 2026-04-27 23:46 | -41.90628 | 147.43531 | 12532 ft | 341 kts | 180° |
| 2026-04-27 23:46 | -41.93006 | 147.43719 | 12534 ft | 343 kts | 180° |
| 2026-04-27 23:46 | -41.95391 | 147.43910 | 12540 ft | 344 kts | 180° |
| 2026-04-27 23:46 | -41.97750 | 147.44097 | 12543 ft | 344 kts | 180° |
| 2026-04-27 23:47 | -42.00142 | 147.44287 | 12104 ft | 349 kts | 180° |
| 2026-04-27 23:47 | -42.02556 | 147.44483 | 11015 ft | 344 kts | 180° |
| 2026-04-27 23:47 | -42.04916 | 147.44670 | 9941 ft | 337 kts | 181° |
| 2026-04-27 23:47 | -42.07230 | 147.44852 | 8792 ft | 328 kts | 181° |
| 2026-04-27 23:48 | -42.09475 | 147.45034 | 7715 ft | 318 kts | 181° |
| 2026-04-27 23:48 | -42.11644 | 147.45205 | 7101 ft | 308 kts | 181° |
| 2026-04-27 23:48 | -42.13761 | 147.45376 | 6812 ft | 303 kts | 181° |
| 2026-04-27 23:48 | -42.15866 | 147.45542 | 6666 ft | 302 kts | 181° |
| 2026-04-27 23:49 | -42.17964 | 147.45729 | 6593 ft | 303 kts | 179° |
| 2026-04-27 23:49 | -42.20038 | 147.46059 | 6569 ft | 305 kts | 176° |
| 2026-04-27 23:49 | -42.22142 | 147.46466 | 6567 ft | 306 kts | 176° |
| 2026-04-27 23:49 | -42.24258 | 147.46871 | 6569 ft | 307 kts | 176° |
| 2026-04-27 23:50 | -42.26374 | 147.47273 | 6559 ft | 308 kts | 176° |
| 2026-04-27 23:50 | -42.28498 | 147.47672 | 6558 ft | 308 kts | 176° |
| 2026-04-27 23:50 | -42.30620 | 147.48068 | 6557 ft | 308 kts | 176° |
| 2026-04-27 23:50 | -42.32745 | 147.48464 | 6550 ft | 308 kts | 176° |
| 2026-04-27 23:51 | -42.34868 | 147.48860 | 6536 ft | 308 kts | 176° |
| 2026-04-27 23:51 | -42.36996 | 147.49258 | 6551 ft | 309 kts | 176° |
| 2026-04-27 23:51 | -42.39124 | 147.49659 | 6538 ft | 309 kts | 176° |
| 2026-04-27 23:51 | -42.41225 | 147.50055 | 6527 ft | 309 kts | 176° |
| 2026-04-27 23:52 | -42.43264 | 147.50992 | 6527 ft | 315 kts | 154° |
| 2026-04-27 23:52 | -42.45169 | 147.52487 | 6537 ft | 317 kts | 153° |
| 2026-04-27 23:52 | -42.47071 | 147.53975 | 6512 ft | 315 kts | 153° |
| 2026-04-27 23:52 | -42.48971 | 147.55465 | 6502 ft | 317 kts | 153° |
| 2026-04-27 23:53 | -42.50878 | 147.56949 | 6518 ft | 316 kts | 153° |
| 2026-04-27 23:53 | -42.52791 | 147.58433 | 6513 ft | 316 kts | 153° |
| 2026-04-27 23:53 | -42.54696 | 147.59909 | 6510 ft | 315 kts | 153° |
| 2026-04-27 23:53 | -42.56575 | 147.61360 | 6501 ft | 315 kts | 153° |
| 2026-04-27 23:54 | -42.58493 | 147.62838 | 5752 ft | 320 kts | 153° |
| 2026-04-27 23:54 | -42.60387 | 147.64295 | 5034 ft | 306 kts | 153° |
| 2026-04-27 23:54 | -42.62218 | 147.65697 | 4734 ft | 300 kts | 153° |
| 2026-04-27 23:54 | -42.64027 | 147.67088 | 4607 ft | 298 kts | 154° |
| 2026-04-27 23:55 | -42.65833 | 147.68475 | 4550 ft | 298 kts | 153° |
| 2026-04-27 23:55 | -42.67641 | 147.69864 | 4539 ft | 299 kts | 154° |
| 2026-04-27 23:55 | -42.69442 | 147.71247 | 4515 ft | 297 kts | 153° |
| 2026-04-27 23:55 | -42.71219 | 147.72608 | 4538 ft | 297 kts | 154° |
| 2026-04-27 23:56 | -42.73018 | 147.73984 | 4529 ft | 297 kts | 153° |
| 2026-04-27 23:56 | -42.74813 | 147.75387 | 4509 ft | 297 kts | 150° |
| 2026-04-27 23:56 | -42.76563 | 147.76869 | 4519 ft | 298 kts | 151° |
| 2026-04-27 23:56 | -42.78335 | 147.78335 | 4516 ft | 297 kts | 151° |
| 2026-04-27 23:57 | -42.80116 | 147.79755 | 4536 ft | 296 kts | 154° |
| 2026-04-27 23:57 | -42.81944 | 147.81028 | 4453 ft | 296 kts | 156° |
| 2026-04-27 23:57 | -42.83821 | 147.82261 | 3424 ft | 296 kts | 157° |
| 2026-04-27 23:57 | -42.85654 | 147.83433 | 2890 ft | 285 kts | 158° |
| 2026-04-27 23:58 | -42.87318 | 147.84499 | 2664 ft | 252 kts | 158° |
| 2026-04-27 23:58 | -42.88809 | 147.85464 | 2549 ft | 224 kts | 158° |
| 2026-04-27 23:58 | -42.90083 | 147.86301 | 2577 ft | 184 kts | 158° |
| 2026-04-27 23:58 | -42.91309 | 147.86967 | 2557 ft | 189 kts | 178° |
| 2026-04-27 23:59 | -42.92511 | 147.86502 | 2508 ft | 181 kts | 214° |
| 2026-04-27 23:59 | -42.93554 | 147.85543 | 2509 ft | 180 kts | 219° |
| 2026-04-27 23:59 | -42.94558 | 147.84510 | 2497 ft | 182 kts | 221° |
| 2026-04-27 23:59 | -42.95551 | 147.83451 | 2492 ft | 181 kts | 222° |
| 2026-04-28 00:00 | -42.96492 | 147.82381 | 2496 ft | 181 kts | 225° |
| 2026-04-28 00:00 | -42.97408 | 147.81237 | 2525 ft | 180 kts | 226° |
| 2026-04-28 00:00 | -42.98163 | 147.79856 | 2482 ft | 191 kts | 246° |
| 2026-04-28 00:00 | -42.98733 | 147.78178 | 2472 ft | 208 kts | 248° |
| 2026-04-28 00:01 | -42.99130 | 147.76320 | 2474 ft | 202 kts | 269° |
| 2026-04-28 00:01 | -42.98712 | 147.74528 | 2488 ft | 202 kts | 297° |
| 2026-04-28 00:01 | -42.98016 | 147.72859 | 2434 ft | 204 kts | 299° |
| 2026-04-28 00:01 | -42.97280 | 147.71181 | 1993 ft | 205 kts | 300° |
| 2026-04-28 00:02 | -42.96538 | 147.69542 | 1713 ft | 201 kts | 302° |
| 2026-04-28 00:02 | -42.95742 | 147.67991 | 1624 ft | 198 kts | 305° |
| 2026-04-28 00:02 | -42.94923 | 147.66477 | 1538 ft | 198 kts | 307° |
| 2026-04-28 00:02 | -42.93991 | 147.65137 | 1493 ft | 198 kts | 315° |
| 2026-04-28 00:03 | -42.92989 | 147.63861 | 1467 ft | 198 kts | 317° |
| 2026-04-28 00:03 | -42.91972 | 147.62591 | 1467 ft | 198 kts | 316° |
| 2026-04-28 00:03 | -42.90950 | 147.61338 | 1473 ft | 197 kts | 317° |
| 2026-04-28 00:03 | -42.89921 | 147.60092 | 1464 ft | 199 kts | 317° |
| 2026-04-28 00:04 | -42.88933 | 147.58900 | 1480 ft | 187 kts | 317° |
| 2026-04-28 00:04 | -42.87066 | 147.56601 | 959 ft | 146 kts | 317° |
| 2026-04-28 00:04 | -42.86417 | 147.55677 | 864 ft | 130 kts | 312° |
| 2026-04-28 00:05 | -42.85917 | 147.54757 | 724 ft | 130 kts | 308° |
| 2026-04-28 00:05 | -42.85375 | 147.53713 | 447 ft | 141 kts | 310° |
| 2026-04-28 00:05 | -42.84720 | 147.52679 | 128 ft | 132 kts | 316° |
| 2026-04-28 00:05 | -42.84335 | 147.52156 | 39 ft | 106 kts | 315° |
| 2026-04-28 00:06 | -42.83775 | 147.51395 | 17 ft | 68 kts | 316° |
| 2026-04-28 00:06 | -42.83479 | 147.50993 | 18 ft | 55 kts | 315° |
| 2026-04-28 00:06 | -42.83316 | 147.50697 | 15 ft | 31 kts | 266° |
| 2026-04-28 00:06 | -42.83443 | 147.50567 | 17 ft | 17 kts | 149° |
| 2026-04-28 00:07 | -42.83523 | 147.50672 | 19 ft | 13 kts | 139° |
| 2026-04-28 00:07 | -42.83593 | 147.50665 | 18 ft | 11 kts | 206° |
| 2026-04-28 00:07 | -42.83630 | 147.50615 | 17 ft | 0 kts | 226° |